Time;durP1;ratioP1;P1;durP2;ratioP2;P2;SDS_P1;SDS_P2;PMS_P1;PMS_P2;Temp;Humidity;BMP_temperature;BMP_pressure;BME280_temperature;BME280_humidity;BME280_pressure;Samples;Min_cycle;Max_cycle;Signal;HPM_P1;HPM_P2
2023/04/15 04:01:39;;;;;;;3.50;3.13;;;8.00;99.90;;;;;;5332071;23;20231;-69
2023/04/15 04:04:06;;;;;;;2.42;2.25;;;8.00;99.90;;;;;;4896393;29;20208;-69
2023/04/15 04:06:33;;;;;;;4.72;4.28;;;8.00;99.90;;;;;;4895254;29;20207;-69
2023/04/15 04:09:00;;;;;;;4.07;2.40;;;8.00;99.90;;;;;;4897659;29;20214;-69
2023/04/15 04:11:27;;;;;;;6.38;2.70;;;8.00;99.90;;;;;;4897077;29;20722;-69
2023/04/15 04:13:54;;;;;;;3.40;2.47;;;8.00;99.90;;;;;;4891989;29;20236;-69
2023/04/15 04:16:21;;;;;;;4.93;3.83;;;8.00;99.90;;;;;;4864582;29;20324;-69
2023/04/15 04:18:49;;;;;;;9.95;5.50;;;8.00;99.90;;;;;;4885536;29;20607;-68
2023/04/15 04:21:15;;;;;;;5.97;4.43;;;8.00;99.90;;;;;;4882898;29;20227;-68
2023/04/15 04:23:42;;;;;;;10.13;3.03;;;8.00;99.90;;;;;;4880637;29;20223;-69
2023/04/15 04:26:09;;;;;;;6.57;4.93;;;8.00;99.90;;;;;;4883232;29;20680;-68
2023/04/15 04:28:36;;;;;;;13.85;5.43;;;8.00;99.90;;;;;;4888503;29;20648;-68
2023/04/15 04:31:02;;;;;;;3.95;3.47;;;8.00;99.90;;;;;;4893794;29;20811;-68
2023/04/15 04:33:29;;;;;;;6.93;3.20;;;8.10;99.90;;;;;;4882033;29;20208;-68
2023/04/15 04:35:57;;;;;;;12.32;4.32;;;8.00;99.90;;;;;;4880321;29;20291;-68
2023/04/15 04:38:24;;;;;;;4.65;3.63;;;8.00;99.90;;;;;;4877539;29;20215;-68
2023/04/15 04:40:51;;;;;;;7.38;3.30;;;8.10;99.90;;;;;;4883879;29;20894;-68
2023/04/15 04:43:18;;;;;;;10.05;6.78;;;8.10;99.90;;;;;;4872090;29;20636;-68
2023/04/15 04:45:45;;;;;;;5.80;5.30;;;8.10;99.90;;;;;;4882878;29;20210;-69
2023/04/15 04:48:12;;;;;;;5.38;3.92;;;8.10;99.90;;;;;;4882640;29;20211;-69
2023/04/15 04:50:38;;;;;;;4.53;4.10;;;8.10;99.90;;;;;;4875724;29;20709;-69
2023/04/15 04:53:07;;;;;;;5.90;3.70;;;8.10;99.90;;;;;;4882713;29;20222;-69
2023/04/15 04:55:35;;;;;;;4.78;3.25;;;8.10;99.90;;;;;;4886984;29;20243;-69
2023/04/15 04:58:02;;;;;;;3.15;3.05;;;8.10;99.90;;;;;;4880014;29;20220;-68
2023/04/15 05:00:29;;;;;;;6.05;2.70;;;8.10;99.90;;;;;;4881965;29;20207;-69
2023/04/15 05:02:56;;;;;;;8.52;5.70;;;8.10;99.90;;;;;;4885162;29;20219;-70
2023/04/15 05:05:22;;;;;;;6.20;4.13;;;8.10;99.90;;;;;;4875100;29;20207;-69
2023/04/15 05:07:49;;;;;;;7.38;4.30;;;8.10;99.90;;;;;;4886246;29;20295;-68
2023/04/15 05:10:18;;;;;;;3.60;3.33;;;8.10;99.90;;;;;;4889108;29;20211;-69
2023/04/15 05:12:44;;;;;;;4.97;3.45;;;8.10;99.90;;;;;;4893788;29;20218;-69
2023/04/15 05:15:11;;;;;;;7.18;6.45;;;8.10;99.90;;;;;;4884469;29;20231;-69
2023/04/15 05:17:38;;;;;;;9.60;6.15;;;8.10;99.90;;;;;;4890171;29;20232;-69
2023/04/15 05:20:06;;;;;;;13.80;4.40;;;8.20;99.90;;;;;;4889536;29;20210;-69
2023/04/15 05:22:33;;;;;;;9.05;5.13;;;8.20;99.90;;;;;;4891283;29;20231;-69
2023/04/15 05:24:59;;;;;;;2.30;2.10;;;8.20;99.90;;;;;;4881763;29;20227;-69
2023/04/15 05:27:28;;;;;;;25.95;5.20;;;8.20;99.90;;;;;;4879152;29;20583;-69
2023/04/15 05:29:55;;;;;;;5.25;4.63;;;8.20;99.90;;;;;;4887946;29;20219;-70
2023/04/15 05:32:22;;;;;;;9.57;4.93;;;8.20;99.90;;;;;;4886797;29;20271;-69
2023/04/15 05:34:48;;;;;;;4.22;3.47;;;8.20;99.90;;;;;;4885091;29;20237;-68
2023/04/15 05:37:15;;;;;;;3.83;3.67;;;8.20;99.90;;;;;;4892989;29;20208;-70
2023/04/15 05:39:42;;;;;;;10.40;5.03;;;8.30;99.90;;;;;;4870366;29;20216;-69
2023/04/15 05:42:09;;;;;;;7.35;5.10;;;8.30;99.90;;;;;;4876855;29;20234;-69
2023/04/15 05:44:37;;;;;;;12.45;3.65;;;8.30;99.90;;;;;;4884077;29;20212;-69
2023/04/15 05:47:04;;;;;;;10.27;4.82;;;8.30;99.90;;;;;;4889408;29;21337;-69
2023/04/15 05:49:31;;;;;;;7.75;3.17;;;8.30;99.90;;;;;;4878241;29;20895;-69
2023/04/15 05:51:58;;;;;;;12.18;5.60;;;8.30;99.90;;;;;;4865656;29;20232;-69
2023/04/15 05:54:26;;;;;;;9.60;5.55;;;8.30;99.90;;;;;;4875325;29;20211;-69
2023/04/15 05:56:53;;;;;;;12.60;5.00;;;8.30;99.90;;;;;;4883006;29;20275;-68
2023/04/15 05:59:20;;;;;;;4.60;3.45;;;8.30;99.90;;;;;;4872311;29;20725;-69
2023/04/15 06:01:48;;;;;;;7.68;6.38;;;8.30;99.90;;;;;;4886491;29;20234;-68
2023/04/15 06:04:15;;;;;;;5.07;3.63;;;8.30;99.90;;;;;;4877881;29;20215;-68
2023/04/15 06:06:42;;;;;;;10.13;4.95;;;8.40;99.90;;;;;;4886365;29;20294;-68
2023/04/15 06:09:09;;;;;;;10.80;7.43;;;8.40;99.90;;;;;;4882600;29;20299;-69
2023/04/15 06:11:36;;;;;;;10.65;7.90;;;8.40;99.90;;;;;;4888102;29;20319;-69
2023/04/15 06:14:02;;;;;;;3.50;3.40;;;8.40;99.90;;;;;;4873512;29;20677;-68
2023/04/15 06:16:29;;;;;;;6.72;6.13;;;8.30;99.90;;;;;;4890438;29;20341;-68
2023/04/15 06:18:57;;;;;;;6.65;6.05;;;8.30;99.90;;;;;;4880557;29;20704;-69
2023/04/15 06:21:24;;;;;;;7.85;4.28;;;8.30;99.90;;;;;;4883128;29;20258;-68
2023/04/15 06:23:51;;;;;;;10.32;8.80;;;8.30;99.90;;;;;;4882591;29;20216;-68
2023/04/15 06:26:17;;;;;;;9.85;8.88;;;8.30;99.90;;;;;;4877115;29;20216;-69
2023/04/15 06:28:44;;;;;;;7.60;6.85;;;8.30;99.90;;;;;;4883411;29;20211;-69
2023/04/15 06:31:11;;;;;;;27.83;8.98;;;8.30;99.90;;;;;;4875859;29;20284;-69
2023/04/15 06:33:38;;;;;;;8.95;6.30;;;8.30;99.90;;;;;;4878345;29;20215;-69
2023/04/15 06:36:06;;;;;;;14.90;6.65;;;8.30;99.90;;;;;;4883821;29;20223;-68
2023/04/15 06:38:33;;;;;;;12.88;7.35;;;8.30;99.90;;;;;;4876722;29;20219;-69
2023/04/15 06:41:00;;;;;;;14.35;8.60;;;8.30;99.90;;;;;;4884088;29;20586;-68
2023/04/15 06:43:27;;;;;;;18.33;10.93;;;8.30;99.90;;;;;;4882659;29;20215;-68
2023/04/15 06:45:54;;;;;;;6.18;5.57;;;8.30;99.90;;;;;;4872582;29;20208;-69
2023/04/15 06:48:20;;;;;;;11.63;8.95;;;8.30;99.90;;;;;;4873727;29;20526;-68
2023/04/15 06:50:47;;;;;;;7.95;6.72;;;8.30;99.90;;;;;;4875790;29;20235;-69
2023/04/15 06:53:15;;;;;;;15.05;6.43;;;8.30;99.90;;;;;;4886517;29;20203;-68
2023/04/15 06:55:42;;;;;;;14.38;7.60;;;8.30;99.90;;;;;;4880297;29;20240;-69
2023/04/15 06:58:09;;;;;;;11.85;7.35;;;8.30;99.90;;;;;;4867464;29;20216;-69
2023/04/15 07:00:37;;;;;;;16.52;9.20;;;8.30;99.90;;;;;;4873646;29;20246;-69
2023/04/15 07:03:04;;;;;;;6.18;4.97;;;8.40;99.90;;;;;;4871933;29;20209;-68
2023/04/15 07:05:32;;;;;;;13.15;9.55;;;8.40;99.90;;;;;;4873830;29;20208;-69
2023/04/15 07:07:59;;;;;;;10.60;6.55;;;8.40;99.90;;;;;;4874931;29;20235;-69
2023/04/15 07:10:27;;;;;;;11.63;7.68;;;8.40;99.90;;;;;;4883747;29;20309;-68
2023/04/15 07:12:54;;;;;;;14.10;8.95;;;8.40;99.90;;;;;;4884288;29;20213;-69
2023/04/15 07:15:22;;;;;;;14.52;9.27;;;8.40;99.90;;;;;;4885337;29;20233;-69
2023/04/15 07:17:49;;;;;;;10.63;6.57;;;8.40;99.90;;;;;;4886228;29;20209;-69
2023/04/15 07:20:15;;;;;;;13.10;7.10;;;8.40;99.90;;;;;;4888509;29;20215;-68
2023/04/15 07:22:42;;;;;;;12.65;7.13;;;8.40;99.90;;;;;;4889562;29;20220;-68
2023/04/15 07:25:09;;;;;;;10.18;7.28;;;8.50;99.90;;;;;;4882013;29;20199;-69
2023/04/15 07:27:37;;;;;;;9.70;8.05;;;8.50;99.90;;;;;;4891097;29;20675;-68
2023/04/15 07:30:05;;;;;;;15.38;11.57;;;8.60;99.90;;;;;;4885502;29;20249;-68
2023/04/15 07:32:31;;;;;;;15.85;9.18;;;8.60;99.90;;;;;;4891052;29;20238;-68
2023/04/15 07:34:58;;;;;;;18.23;10.32;;;8.50;99.90;;;;;;4886261;29;20204;-69
2023/04/15 07:37:25;;;;;;;16.48;9.27;;;8.50;99.90;;;;;;4887015;29;20199;-69
2023/04/15 07:39:52;;;;;;;23.90;12.48;;;8.50;99.90;;;;;;4874152;29;20228;-69
2023/04/15 07:42:19;;;;;;;14.82;6.68;;;8.50;99.90;;;;;;4886559;29;20544;-69
2023/04/15 07:44:47;;;;;;;17.58;7.15;;;8.60;99.90;;;;;;4882171;29;20209;-68
2023/04/15 07:47:13;;;;;;;14.25;9.05;;;8.60;99.90;;;;;;4872197;29;20684;-69
2023/04/15 07:49:42;;;;;;;8.63;7.90;;;8.50;99.90;;;;;;4883884;29;20215;-69
2023/04/15 07:52:08;;;;;;;16.55;11.50;;;8.50;99.90;;;;;;4885394;29;20248;-69
2023/04/15 07:54:35;;;;;;;15.00;8.90;;;8.50;99.90;;;;;;4869215;29;20223;-69
2023/04/15 07:57:02;;;;;;;21.52;9.93;;;8.50;99.90;;;;;;4881838;29;20240;-68
2023/04/15 07:59:32;;;;;;;17.60;8.23;;;8.60;99.90;;;;;;4882716;29;20267;-68
2023/04/15 08:02:00;;;;;;;25.38;10.68;;;8.60;99.90;;;;;;4892616;29;20552;-68
2023/04/15 08:04:27;;;;;;;14.23;9.27;;;8.70;99.90;;;;;;4881970;29;20215;-69
2023/04/15 08:06:54;;;;;;;13.23;7.85;;;8.80;99.90;;;;;;4876231;29;20216;-69
2023/04/15 08:09:20;;;;;;;13.52;7.78;;;8.80;99.90;;;;;;4885744;29;20207;-69
2023/04/15 08:11:49;;;;;;;27.05;12.43;;;8.90;99.90;;;;;;4887901;29;20232;-68
2023/04/15 08:14:15;;;;;;;25.52;10.65;;;8.90;99.90;;;;;;4888466;29;20643;-69
2023/04/15 08:16:42;;;;;;;27.35;11.90;;;8.90;99.90;;;;;;4889634;29;20228;-69
2023/04/15 08:19:10;;;;;;;23.70;11.25;;;8.90;99.90;;;;;;4891080;29;20577;-68
2023/04/15 08:21:37;;;;;;;14.65;8.70;;;8.90;99.90;;;;;;4883885;29;20235;-69
2023/04/15 08:24:04;;;;;;;15.38;8.80;;;9.00;99.90;;;;;;4886086;29;20292;-69
2023/04/15 08:26:31;;;;;;;21.05;7.57;;;9.00;99.90;;;;;;4887412;29;20214;-69
2023/04/15 08:28:58;;;;;;;15.80;8.90;;;9.00;99.90;;;;;;4888551;29;20219;-69
2023/04/15 08:31:26;;;;;;;21.60;8.40;;;9.00;99.90;;;;;;4880543;29;20249;-69
2023/04/15 08:33:55;;;;;;;17.75;11.82;;;9.00;99.90;;;;;;4881934;29;20216;-68
2023/04/15 08:36:23;;;;;;;31.90;11.50;;;9.00;99.90;;;;;;4875968;29;20228;-69
2023/04/15 08:38:50;;;;;;;18.40;11.25;;;9.10;99.90;;;;;;4876576;29;20212;-69
2023/04/15 08:41:22;;;;;;;21.73;11.85;;;9.10;99.90;;;;;;4881067;29;20294;-69
2023/04/15 08:43:54;;;;;;;13.77;10.50;;;9.10;99.90;;;;;;4870720;29;20617;-69
2023/04/15 08:46:21;;;;;;;13.15;10.65;;;9.20;99.90;;;;;;4887950;29;20242;-69
2023/04/15 08:48:49;;;;;;;19.05;9.25;;;9.20;99.90;;;;;;4879503;29;20387;-69
2023/04/15 08:51:16;;;;;;;13.85;7.93;;;9.20;99.90;;;;;;4892400;29;20244;-69
2023/04/15 08:53:46;;;;;;;21.67;9.52;;;9.20;99.90;;;;;;4873537;29;20246;-69
2023/04/15 08:56:14;;;;;;;17.15;8.77;;;9.20;99.90;;;;;;4882179;29;20716;-69
2023/04/15 08:58:41;;;;;;;14.48;9.60;;;9.20;99.90;;;;;;4880751;29;20231;-68
2023/04/15 09:01:08;;;;;;;11.73;10.15;;;9.20;99.90;;;;;;4887318;29;20337;-69
2023/04/15 09:03:36;;;;;;;25.15;14.35;;;9.20;99.90;;;;;;4878214;29;20224;-69
2023/04/15 09:06:05;;;;;;;15.70;8.90;;;9.30;99.90;;;;;;4878586;29;20212;-69
2023/04/15 09:08:33;;;;;;;18.65;12.05;;;9.30;99.90;;;;;;4890616;29;20613;-68
2023/04/15 09:11:01;;;;;;;17.77;10.13;;;9.30;99.90;;;;;;4870807;29;20315;-69
2023/04/15 09:13:29;;;;;;;25.10;9.45;;;9.30;99.90;;;;;;4872449;29;20222;-69
2023/04/15 09:15:57;;;;;;;14.85;9.15;;;9.30;99.90;;;;;;4892191;29;20303;-68
2023/04/15 09:18:31;;;;;;;22.20;12.68;;;9.40;99.90;;;;;;4888572;29;20575;-69
2023/04/15 09:21:05;;;;;;;12.20;10.18;;;9.40;99.90;;;;;;4876574;29;20520;-69
2023/04/15 09:23:32;;;;;;;19.00;10.88;;;9.40;99.90;;;;;;4882705;29;20211;-68
2023/04/15 09:26:01;;;;;;;20.65;10.35;;;9.50;99.90;;;;;;4891167;29;20231;-69
2023/04/15 09:28:28;;;;;;;15.80;11.27;;;9.60;99.90;;;;;;4894177;29;20214;-68
2023/04/15 09:30:58;;;;;;;16.15;9.80;;;9.70;99.90;;;;;;4880770;29;20232;-67
2023/04/15 09:33:26;;;;;;;22.58;11.60;;;9.80;99.90;;;;;;4873252;29;20211;-68
2023/04/15 09:36:01;;;;;;;22.80;10.80;;;9.90;99.90;;;;;;4883917;29;20230;-69
2023/04/15 09:38:28;;;;;;;20.35;8.07;;;9.90;99.90;;;;;;4885682;29;20266;-68
2023/04/15 09:40:55;;;;;;;14.32;10.38;;;9.90;99.90;;;;;;4887609;29;20578;-69
2023/04/15 09:43:27;;;;;;;19.67;13.05;;;10.00;99.90;;;;;;4883149;29;20290;-68
2023/04/15 09:45:54;;;;;;;9.77;7.00;;;10.10;99.90;;;;;;4872976;29;20208;-68
2023/04/15 09:48:25;;;;;;;9.02;6.60;;;10.10;99.90;;;;;;4872924;29;20226;-69
2023/04/15 09:50:52;;;;;;;18.75;10.68;;;10.10;99.90;;;;;;4883479;29;20235;-69
2023/04/15 09:53:20;;;;;;;15.52;7.80;;;10.10;99.90;;;;;;4890726;29;20203;-68
2023/04/15 09:55:50;;;;;;;13.30;7.05;;;10.10;99.90;;;;;;4887042;29;20235;-68
2023/04/15 09:58:21;;;;;;;10.65;6.97;;;10.10;99.90;;;;;;4889316;29;20231;-68
2023/04/15 10:00:50;;;;;;;27.00;12.52;;;10.10;99.90;;;;;;4884951;29;20243;-68
2023/04/15 10:03:21;;;;;;;20.63;10.77;;;10.20;99.90;;;;;;4890775;29;20591;-67
2023/04/15 10:05:49;;;;;;;19.15;11.18;;;10.30;99.90;;;;;;4883223;29;20287;-68
2023/04/15 10:08:17;;;;;;;10.93;7.18;;;10.40;99.90;;;;;;4896066;29;20211;-67
2023/04/15 10:10:45;;;;;;;16.48;9.55;;;10.40;99.90;;;;;;4887720;29;20764;-68
2023/04/15 10:13:14;;;;;;;20.30;9.48;;;10.50;99.90;;;;;;4879641;29;20212;-68
2023/04/15 10:15:43;;;;;;;14.75;8.88;;;10.60;99.90;;;;;;4863094;29;20644;-68
2023/04/15 10:18:12;;;;;;;13.77;7.43;;;10.80;99.90;;;;;;4871813;29;20216;-67
2023/04/15 10:20:40;;;;;;;11.85;9.30;;;10.80;99.90;;;;;;4875217;29;20612;-67
2023/04/15 10:23:08;;;;;;;14.45;7.85;;;10.90;99.90;;;;;;4891649;29;20332;-66
2023/04/15 10:25:36;;;;;;;17.40;11.00;;;10.90;99.90;;;;;;4882842;29;20771;-67
2023/04/15 10:28:04;;;;;;;12.60;9.65;;;11.00;99.90;;;;;;4892102;29;20259;-66
2023/04/15 10:30:32;;;;;;;20.42;9.02;;;11.00;99.90;;;;;;4879302;29;20230;-65
2023/04/15 10:33:00;;;;;;;8.75;7.10;;;11.00;99.90;;;;;;4874704;29;20216;-66
2023/04/15 10:35:29;;;;;;;17.13;9.52;;;11.10;99.90;;;;;;4884862;29;20211;-67
2023/04/15 10:37:56;;;;;;;19.35;8.95;;;11.20;99.90;;;;;;4874310;29;20690;-66
2023/04/15 10:40:28;;;;;;;15.63;10.35;;;11.20;99.90;;;;;;4877303;29;20341;-67
2023/04/15 10:42:55;;;;;;;14.18;9.93;;;11.30;99.90;;;;;;4888147;29;20749;-68
2023/04/15 10:45:26;;;;;;;17.27;10.52;;;11.40;99.90;;;;;;4882560;29;20237;-64
2023/04/15 10:47:55;;;;;;;19.10;12.55;;;11.50;99.90;;;;;;4883076;29;20239;-69
2023/04/15 10:50:22;;;;;;;20.27;12.25;;;11.70;99.90;;;;;;4894567;29;20207;-69
2023/04/15 10:52:52;;;;;;;16.97;13.43;;;11.90;99.90;;;;;;4886334;29;20584;-69
2023/04/15 10:55:21;;;;;;;11.97;9.77;;;12.10;99.90;;;;;;4894642;29;20463;-69
2023/04/15 10:57:52;;;;;;;12.37;9.30;;;12.10;99.90;;;;;;4895185;29;20860;-69
2023/04/15 11:00:20;;;;;;;14.37;10.27;;;12.10;99.90;;;;;;4881517;29;20478;-68
2023/04/15 11:02:52;;;;;;;14.50;9.50;;;12.20;99.90;;;;;;4885590;29;20476;-69
2023/04/15 11:05:20;;;;;;;16.23;11.53;;;12.40;99.90;;;;;;4894756;29;20475;-68
2023/04/15 11:07:53;;;;;;;17.07;9.37;;;12.60;99.90;;;;;;4895148;29;20535;-69
2023/04/15 11:10:57;;;;;;;11.90;8.93;;;12.80;99.90;;;;;;4895328;29;20474;-69
2023/04/15 11:13:28;;;;;;;11.33;6.87;;;13.10;99.90;;;;;;4894779;29;20845;-69
2023/04/15 11:16:02;;;;;;;14.43;9.30;;;13.10;99.90;;;;;;4892102;29;20467;-69
2023/04/15 11:18:31;;;;;;;14.67;10.27;;;13.00;99.90;;;;;;4895234;29;20471;-68
2023/04/15 11:21:01;;;;;;;11.60;7.93;;;13.00;99.90;;;;;;4895061;29;20487;-69
2023/04/15 11:23:34;;;;;;;13.77;10.07;;;13.10;99.90;;;;;;4892442;29;20475;-69
2023/04/15 11:26:04;;;;;;;14.90;8.67;;;13.20;99.90;;;;;;4895359;29;20928;-69
2023/04/15 11:28:32;;;;;;;18.57;9.27;;;13.20;99.90;;;;;;4889444;29;20483;-69
2023/04/15 11:31:07;;;;;;;15.70;9.30;;;13.30;99.90;;;;;;4895077;29;20479;-69
2023/04/15 11:33:34;;;;;;;14.57;10.40;;;13.50;99.90;;;;;;4893804;29;20497;-69
2023/04/15 11:36:02;;;;;;;13.07;10.20;;;13.60;99.90;;;;;;4897984;29;20463;-69
2023/04/15 11:38:31;;;;;;;13.23;9.53;;;13.70;99.90;;;;;;4896843;29;20479;-69
2023/04/15 11:40:58;;;;;;;13.77;9.40;;;13.70;99.90;;;;;;4886683;29;21045;-69
2023/04/15 11:43:25;;;;;;;11.33;8.00;;;13.60;99.90;;;;;;4896366;29;20801;-69
2023/04/15 11:45:55;;;;;;;13.73;8.43;;;13.50;99.90;;;;;;4896601;29;20478;-69
2023/04/15 11:48:23;;;;;;;16.93;9.30;;;13.40;99.90;;;;;;4892071;29;20545;-69
2023/04/15 11:50:55;;;;;;;9.40;7.50;;;13.20;99.90;;;;;;4894964;29;20491;-69
2023/04/15 11:53:22;;;;;;;9.10;7.47;;;13.30;99.90;;;;;;4894615;29;20467;-69
2023/04/15 11:55:52;;;;;;;9.87;7.50;;;13.30;99.90;;;;;;4875400;29;20547;-69
2023/04/15 11:58:20;;;;;;;13.87;9.47;;;13.30;99.90;;;;;;4889102;29;20491;-69
2023/04/15 12:00:48;;;;;;;14.40;8.30;;;13.30;99.90;;;;;;4890972;29;20844;-69
2023/04/15 12:03:20;;;;;;;9.93;8.40;;;13.40;99.90;;;;;;4897821;29;20838;-69
2023/04/15 12:06:07;;;;;;;9.07;7.20;;;13.40;99.90;;;;;;4898074;29;20471;-69
2023/04/15 12:08:57;;;;;;;10.97;8.37;;;13.30;99.90;;;;;;4897876;29;20471;-69
2023/04/15 12:11:31;;;;;;;8.07;7.30;;;13.30;99.90;;;;;;4890973;29;21028;-69
2023/04/15 12:13:59;;;;;;;12.00;7.67;;;13.30;99.90;;;;;;4897298;29;20468;-69
2023/04/15 12:16:28;;;;;;;11.33;7.53;;;13.30;99.90;;;;;;4898026;29;20477;-69
2023/04/15 12:18:56;;;;;;;7.77;6.97;;;13.30;99.90;;;;;;4898118;29;20538;-69
2023/04/15 12:21:24;;;;;;;13.10;8.60;;;13.30;99.90;;;;;;4897702;29;20491;-68
2023/04/15 12:23:52;;;;;;;16.80;8.57;;;13.20;99.90;;;;;;4896939;29;20467;-69
2023/04/15 12:26:25;;;;;;;12.17;7.93;;;13.20;99.90;;;;;;4889223;29;20494;-69
2023/04/15 12:28:56;;;;;;;10.60;7.97;;;13.30;99.90;;;;;;4898188;29;20821;-69
2023/04/15 12:31:23;;;;;;;11.83;8.73;;;13.30;99.90;;;;;;4897866;29;20486;-69
2023/04/15 12:33:50;;;;;;;15.60;9.70;;;13.30;99.90;;;;;;4895448;29;20471;-68
2023/04/15 12:36:16;;;;;;;12.73;7.60;;;13.40;99.90;;;;;;4897456;29;20463;-67
2023/04/15 12:38:43;;;;;;;9.07;6.33;;;13.50;99.90;;;;;;4893305;29;20502;-68
2023/04/15 12:41:10;;;;;;;10.10;7.90;;;13.70;99.90;;;;;;4897146;29;20491;-68
2023/04/15 12:43:37;;;;;;;9.70;6.90;;;13.80;99.90;;;;;;4896861;29;21031;-68
2023/04/15 12:46:05;;;;;;;7.03;6.37;;;13.80;99.90;;;;;;4897392;29;20604;-67
2023/04/15 12:48:33;;;;;;;13.47;7.83;;;13.80;99.90;;;;;;4897368;29;20478;-68
2023/04/15 12:50:59;;;;;;;10.17;8.20;;;13.80;99.90;;;;;;4896965;29;20519;-68
2023/04/15 12:53:27;;;;;;;8.90;6.70;;;13.70;99.90;;;;;;4891614;29;20476;-69
2023/04/15 12:55:54;;;;;;;11.13;7.20;;;13.70;99.90;;;;;;4895292;29;20467;-68
2023/04/15 12:58:21;;;;;;;8.60;6.40;;;13.60;99.90;;;;;;4897421;29;20495;-68
2023/04/15 13:00:48;;;;;;;6.97;5.73;;;13.50;99.90;;;;;;4897204;29;20583;-68
2023/04/15 13:03:16;;;;;;;12.93;7.23;;;13.50;99.90;;;;;;4891318;29;20472;-69
2023/04/15 13:05:43;;;;;;;7.67;6.93;;;13.40;99.90;;;;;;4896459;29;20463;-68
2023/04/15 13:08:10;;;;;;;7.13;6.43;;;13.40;99.90;;;;;;4896560;29;20468;-68
2023/04/15 13:10:37;;;;;;;5.43;4.93;;;13.50;99.90;;;;;;4896044;29;20491;-69
2023/04/15 13:13:04;;;;;;;6.30;5.80;;;13.50;99.90;;;;;;4897042;29;20467;-68
2023/04/15 13:15:30;;;;;;;7.20;6.57;;;13.50;99.90;;;;;;4894863;29;20467;-68
2023/04/15 13:17:57;;;;;;;6.70;5.73;;;13.30;99.90;;;;;;4886460;29;20569;-68
2023/04/15 13:20:26;;;;;;;8.87;7.20;;;13.30;99.90;;;;;;4896334;29;20949;-69
2023/04/15 13:22:53;;;;;;;6.93;5.87;;;13.30;99.90;;;;;;4896353;29;20489;-68
2023/04/15 13:25:20;;;;;;;9.67;7.80;;;13.20;99.90;;;;;;4896391;29;20467;-68
2023/04/15 13:27:47;;;;;;;5.90;5.10;;;13.20;99.90;;;;;;4895266;29;20474;-68
2023/04/15 13:30:14;;;;;;;6.77;5.93;;;13.20;99.90;;;;;;4883219;29;20470;-68
2023/04/15 13:32:40;;;;;;;10.17;6.80;;;13.20;99.90;;;;;;4894281;29;20463;-68
2023/04/15 13:35:08;;;;;;;6.97;6.33;;;13.10;99.90;;;;;;4893793;29;20965;-68
2023/04/15 13:37:36;;;;;;;5.70;5.10;;;13.20;99.90;;;;;;4887056;29;20494;-68
2023/04/15 13:40:06;;;;;;;6.10;5.50;;;13.30;99.90;;;;;;4885586;29;20474;-68
2023/04/15 13:42:33;;;;;;;7.17;6.47;;;13.20;99.90;;;;;;4896156;29;20479;-67
2023/04/15 13:44:59;;;;;;;7.50;5.47;;;13.20;99.90;;;;;;4895697;29;20478;-67
2023/04/15 13:47:26;;;;;;;10.10;6.60;;;13.20;99.90;;;;;;4896537;29;20463;-68
2023/04/15 13:49:55;;;;;;;9.10;7.60;;;13.30;99.90;;;;;;4887644;29;20471;-68
2023/04/15 13:52:22;;;;;;;6.07;5.47;;;13.20;99.90;;;;;;4874641;29;20492;-68
2023/04/15 13:54:50;;;;;;;10.83;6.60;;;13.20;99.90;;;;;;4878511;29;20469;-68
2023/04/15 13:57:17;;;;;;;14.73;7.40;;;13.20;99.90;;;;;;4889985;29;20498;-68
2023/04/15 13:59:44;;;;;;;6.43;5.80;;;13.20;99.90;;;;;;4892183;29;20473;-68
2023/04/15 14:02:11;;;;;;;6.87;6.23;;;13.20;99.90;;;;;;4895928;29;20499;-68
2023/04/15 14:04:38;;;;;;;5.80;5.30;;;13.10;99.90;;;;;;4892881;29;20471;-67
2023/04/15 14:07:04;;;;;;;8.43;6.73;;;13.10;99.90;;;;;;4895350;29;20470;-68
2023/04/15 14:09:31;;;;;;;6.47;5.40;;;13.10;99.90;;;;;;4892196;29;20959;-68
2023/04/15 14:12:00;;;;;;;6.93;6.37;;;13.20;99.90;;;;;;4896103;29;20507;-68
2023/04/15 14:14:27;;;;;;;7.50;6.37;;;13.20;99.90;;;;;;4895292;29;20905;-68
2023/04/15 14:16:54;;;;;;;9.77;6.30;;;13.30;99.90;;;;;;4896315;29;20498;-68
2023/04/15 14:19:21;;;;;;;6.20;4.90;;;13.30;99.90;;;;;;4895488;29;20498;-68
2023/04/15 14:21:48;;;;;;;6.40;5.80;;;13.30;99.90;;;;;;4895883;29;20494;-68
2023/04/15 14:24:15;;;;;;;10.13;7.00;;;13.40;99.90;;;;;;4889847;29;20849;-67
2023/04/15 14:26:43;;;;;;;9.93;5.60;;;13.50;99.90;;;;;;4895897;29;20471;-69
2023/04/15 14:29:11;;;;;;;6.93;5.20;;;13.50;99.90;;;;;;4895586;29;20467;-67
2023/04/15 14:31:38;;;;;;;5.07;4.50;;;13.60;99.90;;;;;;4896004;29;20566;-68
2023/04/15 14:34:05;;;;;;;10.20;5.27;;;13.60;99.90;;;;;;4893325;29;20547;-68
2023/04/15 14:36:32;;;;;;;5.03;4.53;;;13.70;99.90;;;;;;4891360;29;20477;-68
2023/04/15 14:38:59;;;;;;;6.87;5.70;;;13.70;99.90;;;;;;4893656;29;20486;-69
2023/04/15 14:41:26;;;;;;;3.50;3.17;;;13.80;99.90;;;;;;4895627;29;20491;-68
2023/04/15 14:43:53;;;;;;;5.77;5.37;;;13.80;99.90;;;;;;4894871;29;20468;-68
2023/04/15 14:46:21;;;;;;;5.53;5.03;;;13.80;99.90;;;;;;4891214;29;20471;-69
2023/04/15 14:48:48;;;;;;;5.60;5.10;;;13.70;99.90;;;;;;4895391;29;20953;-68
2023/04/15 14:51:15;;;;;;;6.20;5.60;;;13.70;99.90;;;;;;4895272;29;20487;-68
2023/04/15 14:53:41;;;;;;;8.27;6.40;;;13.70;99.90;;;;;;4894528;29;20933;-68
2023/04/15 14:56:08;;;;;;;5.83;4.57;;;13.70;99.90;;;;;;4887527;29;20467;-68
2023/04/15 14:58:35;;;;;;;5.03;4.63;;;13.70;99.90;;;;;;4895299;29;20996;-68
2023/04/15 15:01:03;;;;;;;6.83;6.30;;;13.70;99.90;;;;;;4895331;29;20501;-68
2023/04/15 15:03:31;;;;;;;11.17;5.47;;;13.70;99.90;;;;;;4882648;29;20476;-70
2023/04/15 15:05:57;;;;;;;5.97;5.47;;;13.80;99.90;;;;;;4878078;29;20477;-68
2023/04/15 15:08:24;;;;;;;14.60;4.60;;;13.90;99.90;;;;;;4883459;29;20471;-68
2023/04/15 15:10:51;;;;;;;3.70;3.40;;;13.80;99.90;;;;;;4895171;29;20566;-69
2023/04/15 15:13:18;;;;;;;4.47;4.00;;;13.90;99.90;;;;;;4895053;29;20502;-69
2023/04/15 15:15:47;;;;;;;5.50;5.00;;;13.80;99.90;;;;;;4895413;29;20531;-68
2023/04/15 15:18:15;;;;;;;8.77;6.47;;;13.70;99.90;;;;;;4895471;29;20491;-68
2023/04/15 15:20:43;;;;;;;4.80;4.03;;;13.70;99.90;;;;;;4891385;29;20491;-68
2023/04/15 15:23:10;;;;;;;6.90;4.53;;;13.70;99.90;;;;;;4894516;29;20949;-68
2023/04/15 15:25:37;;;;;;;6.33;5.40;;;13.70;99.90;;;;;;4894611;29;20467;-68
2023/04/15 15:28:04;;;;;;;5.53;5.13;;;13.70;99.90;;;;;;4895378;29;20861;-68
2023/04/15 15:30:31;;;;;;;4.53;3.57;;;13.80;99.90;;;;;;4895446;29;20821;-68
2023/04/15 15:32:57;;;;;;;6.93;6.37;;;13.80;99.90;;;;;;4894569;29;20468;-68
2023/04/15 15:35:25;;;;;;;6.77;5.50;;;13.80;99.90;;;;;;4892359;29;20987;-68
2023/04/15 15:37:54;;;;;;;4.00;3.60;;;13.80;99.90;;;;;;4898183;29;20582;-68
2023/04/15 15:40:21;;;;;;;5.57;5.07;;;13.80;99.90;;;;;;4898951;29;20480;-68
2023/04/15 15:42:49;;;;;;;13.80;5.53;;;13.90;99.90;;;;;;4898816;29;20474;-68
2023/04/15 15:45:16;;;;;;;6.40;5.13;;;14.00;99.90;;;;;;4898152;29;20528;-68
2023/04/15 15:47:43;;;;;;;8.30;6.70;;;14.00;99.90;;;;;;4898659;29;20463;-68
2023/04/15 15:50:10;;;;;;;10.23;6.80;;;14.00;99.90;;;;;;4891369;29;20527;-68
2023/04/15 15:52:37;;;;;;;7.93;5.50;;;14.10;99.90;;;;;;4898217;29;20493;-69
2023/04/15 15:55:06;;;;;;;6.63;6.10;;;14.10;99.90;;;;;;4898140;29;20477;-69
2023/04/15 15:57:33;;;;;;;5.77;5.43;;;14.10;99.90;;;;;;4882039;29;20475;-69
2023/04/15 15:59:59;;;;;;;7.90;7.20;;;14.10;99.90;;;;;;4900419;29;20474;-69
2023/04/15 16:02:26;;;;;;;6.23;5.60;;;14.10;99.90;;;;;;4900112;29;21193;-70
2023/04/15 16:04:53;;;;;;;7.70;5.03;;;14.10;99.90;;;;;;4890958;29;20583;-69
2023/04/15 16:07:19;;;;;;;8.67;6.87;;;14.00;99.90;;;;;;4898850;29;20459;-69
2023/04/15 16:09:46;;;;;;;6.13;5.53;;;14.00;99.90;;;;;;4892367;29;21140;-69
2023/04/15 16:12:14;;;;;;;7.13;5.87;;;14.00;99.90;;;;;;4890757;29;20487;-69
2023/04/15 16:14:42;;;;;;;6.07;5.40;;;13.90;99.90;;;;;;4897625;29;20482;-69
2023/04/15 16:17:08;;;;;;;7.60;6.30;;;13.90;99.90;;;;;;4898356;29;20559;-69
2023/04/15 16:19:36;;;;;;;5.97;5.37;;;13.90;99.90;;;;;;4897513;29;20545;-69
2023/04/15 16:22:02;;;;;;;6.77;6.13;;;13.90;99.90;;;;;;4898153;29;20491;-69
2023/04/15 16:24:29;;;;;;;9.60;6.33;;;13.90;99.90;;;;;;4894591;29;20475;-70
2023/04/15 16:26:58;;;;;;;7.70;7.00;;;13.90;99.90;;;;;;4894157;29;20503;-70
2023/04/15 16:29:26;;;;;;;10.07;5.83;;;13.90;99.90;;;;;;4897758;29;20563;-70
2023/04/15 16:31:52;;;;;;;6.80;6.20;;;13.90;99.90;;;;;;4890281;29;20599;-70
2023/04/15 16:34:19;;;;;;;5.33;4.93;;;13.90;99.90;;;;;;4877933;29;20473;-70
2023/04/15 16:36:46;;;;;;;6.00;4.60;;;13.90;99.90;;;;;;4891433;29;20475;-70
2023/04/15 16:39:13;;;;;;;5.80;5.50;;;13.60;99.90;;;;;;4897321;29;20498;-70
2023/04/15 16:41:41;;;;;;;10.50;7.53;;;13.50;99.90;;;;;;4897653;29;20491;-70
2023/04/15 16:44:09;;;;;;;7.67;6.90;;;13.40;99.90;;;;;;4896707;29;20467;-70
2023/04/15 16:46:37;;;;;;;9.47;6.23;;;13.30;99.90;;;;;;4897567;29;20467;-71
2023/04/15 16:49:04;;;;;;;16.17;6.77;;;13.20;99.90;;;;;;4894756;29;20468;-70